Jiuzhen, China
Current Conditions -  °F | °C
As of 12:00 AM on Saturday 20 Dec 2014 (Local Time) from ZSAM Reporting Station
Haze Haze  
Wind Chill: 55°   Ceiling: 5000
Heat Index: 55°   Visibility: 2.3mi
Dew Point: 55°   Wind: 2mph
Humidity: 100%   Direction: NA
Pressure: 30.21"   Gusts: NA
Location:  24.05°N, 117.72°E
Report Text: ZSAM 191600Z VRB01MPS 3800 BR BKN050 13/13 Q1023 NOSIG
Loading
Personal Weather Stations






























Interactive Weather Map New forecast layout! Learn more

10-Day Weather Forecast

Advertisements
Track Severe Weather on mobile